Time;durP1;ratioP1;P1;durP2;ratioP2;P2;SDS_P1;SDS_P2;PMS_P1;PMS_P2;Temp;Humidity;BMP_temperature;BMP_pressure;BME280_temperature;BME280_humidity;BME280_pressure;Samples;Min_cycle;Max_cycle;Signal;HPM_P1;HPM_P2
2023/09/18 00:01:57;;;;;;;55.63;31.33;;;16.60;95.50;;;;;;4973770;28;20081;-77
2023/09/18 00:04:22;;;;;;;68.82;32.72;;;16.60;95.50;;;;;;4957981;28;20505;-78
2023/09/18 00:06:48;;;;;;;72.40;31.17;;;16.60;95.50;;;;;;4957999;28;20518;-79
2023/09/18 00:09:14;;;;;;;52.40;29.05;;;16.60;95.50;;;;;;4957269;28;20077;-77
2023/09/18 00:11:40;;;;;;;49.95;29.75;;;16.60;95.50;;;;;;4973633;28;20039;-77
2023/09/18 00:14:07;;;;;;;79.93;33.50;;;16.60;95.40;;;;;;4973628;28;20043;-78
2023/09/18 00:16:33;;;;;;;27.42;21.70;;;16.50;95.40;;;;;;4973562;28;20396;-81
2023/09/18 00:18:58;;;;;;;50.63;31.48;;;16.50;95.40;;;;;;4973622;28;20043;-77
2023/09/18 00:21:25;;;;;;;63.33;28.90;;;16.50;95.40;;;;;;4973221;28;20105;-80
2023/09/18 00:23:52;;;;;;;67.00;31.88;;;16.50;95.30;;;;;;4973496;28;20125;-79
2023/09/18 00:26:17;;;;;;;59.95;31.10;;;16.50;95.30;;;;;;4973628;28;20085;-81
2023/09/18 00:28:43;;;;;;;73.40;32.15;;;16.50;95.40;;;;;;4940983;28;20094;-79
2023/09/18 00:31:09;;;;;;;55.58;29.98;;;16.50;95.30;;;;;;4973558;28;20053;-77
2023/09/18 00:33:35;;;;;;;55.15;31.23;;;16.40;95.30;;;;;;4941417;28;20503;-80
2023/09/18 00:36:01;;;;;;;38.15;28.20;;;16.40;95.30;;;;;;4957076;28;20046;-78
2023/09/18 00:38:27;;;;;;;43.55;30.27;;;16.40;95.30;;;;;;4973472;28;20186;-82
2023/09/18 00:40:52;;;;;;;55.60;31.48;;;16.40;95.30;;;;;;4957168;28;20046;-76
2023/09/18 00:43:18;;;;;;;58.58;32.08;;;16.40;95.20;;;;;;4973036;28;20039;-80
2023/09/18 00:45:48;;;;;;;52.33;35.00;;;16.40;95.30;;;;;;4973020;28;20383;-78
2023/09/18 00:48:17;;;;;;;25.83;23.02;;;16.40;95.20;;;;;;4957515;28;20035;-77
2023/09/18 00:50:47;;;;;;;50.38;35.03;;;16.40;95.30;;;;;;4957549;28;20372;-81
2023/09/18 00:53:23;;;;;;;40.10;32.92;;;16.40;95.30;;;;;;4973413;28;20491;-81
2023/09/18 00:55:53;;;;;;;42.45;31.50;;;16.40;95.30;;;;;;4973484;28;20054;-78
2023/09/18 00:58:18;;;;;;;51.25;35.53;;;16.40;95.30;;;;;;4973151;28;20122;-81
2023/09/18 01:00:45;;;;;;;34.92;28.98;;;16.40;95.30;;;;;;4956896;28;20122;-80
2023/09/18 01:03:11;;;;;;;38.13;31.40;;;16.40;95.30;;;;;;4974424;28;20034;-81
2023/09/18 01:05:36;;;;;;;44.33;33.42;;;16.40;95.30;;;;;;4976651;28;20047;-80
2023/09/18 01:08:02;;;;;;;35.38;29.15;;;16.40;95.30;;;;;;4976286;28;20051;-78
2023/09/18 01:10:36;;;;;;;40.55;31.20;;;16.40;95.30;;;;;;4977032;28;20039;-79
2023/09/18 01:13:13;;;;;;;40.97;31.10;;;16.40;95.20;;;;;;4976828;28;20046;-76
2023/09/18 01:15:54;;;;;;;44.17;31.77;;;16.30;95.20;;;;;;4960731;28;20069;-77
2023/09/18 01:18:19;;;;;;;44.83;32.45;;;16.30;95.30;;;;;;4976617;28;20038;-77
2023/09/18 01:20:45;;;;;;;33.90;27.88;;;16.30;95.30;;;;;;4976488;28;20043;-80
2023/09/18 01:23:11;;;;;;;36.80;29.80;;;16.30;95.30;;;;;;4960222;28;20154;-76
2023/09/18 01:25:37;;;;;;;32.00;28.02;;;16.30;95.30;;;;;;4960501;28;20046;-78
2023/09/18 01:28:03;;;;;;;38.13;31.45;;;16.30;95.30;;;;;;4976377;28;20082;-77
2023/09/18 01:30:29;;;;;;;38.83;31.80;;;16.30;95.20;;;;;;4976119;28;20082;-77
2023/09/18 01:32:58;;;;;;;30.95;27.15;;;16.20;95.20;;;;;;4944140;28;20046;-81
2023/09/18 01:35:29;;;;;;;39.28;30.88;;;16.30;95.20;;;;;;4976285;28;20034;-76
2023/09/18 01:38:00;;;;;;;46.42;32.60;;;16.30;95.20;;;;;;4960856;28;20051;-76
2023/09/18 01:40:26;;;;;;;37.13;30.73;;;16.30;95.20;;;;;;4976495;28;20125;-79
2023/09/18 01:42:53;;;;;;;37.53;31.65;;;16.30;95.20;;;;;;4976346;28;20518;-82
2023/09/18 01:45:19;;;;;;;35.17;27.83;;;16.30;95.20;;;;;;4960037;28;20046;-77
2023/09/18 01:47:46;;;;;;;30.80;26.42;;;16.30;95.30;;;;;;4959498;28;20562;-78
2023/09/18 01:50:13;;;;;;;30.00;26.83;;;16.30;95.30;;;;;;4976055;28;20384;-76
2023/09/18 01:52:38;;;;;;;35.55;29.02;;;16.30;95.30;;;;;;4975986;28;20085;-79
2023/09/18 01:55:05;;;;;;;33.55;28.40;;;16.30;95.20;;;;;;4944399;28;20082;-76
2023/09/18 01:57:30;;;;;;;35.42;28.55;;;16.20;95.20;;;;;;4959798;28;20097;-80
2023/09/18 01:59:56;;;;;;;43.83;32.10;;;16.20;95.20;;;;;;4943965;28;20125;-77
2023/09/18 02:02:22;;;;;;;44.88;33.03;;;16.20;95.20;;;;;;4975878;28;20046;-78
2023/09/18 02:04:47;;;;;;;35.20;29.80;;;16.30;95.20;;;;;;4975729;28;20102;-78
2023/09/18 02:07:13;;;;;;;35.22;28.70;;;16.20;95.30;;;;;;4975740;28;20042;-79
2023/09/18 02:09:39;;;;;;;31.50;28.15;;;16.30;95.40;;;;;;4976019;28;20087;-78
2023/09/18 02:12:05;;;;;;;42.97;32.15;;;16.20;95.40;;;;;;4959551;28;20407;-77
2023/09/18 02:14:31;;;;;;;36.38;30.05;;;16.30;95.50;;;;;;4975451;28;20051;-78
2023/09/18 02:16:57;;;;;;;40.67;31.70;;;16.30;95.70;;;;;;4975626;28;20039;-80
2023/09/18 02:19:23;;;;;;;32.30;27.73;;;16.30;96.10;;;;;;4975241;28;20475;-77
2023/09/18 02:21:49;;;;;;;38.45;32.22;;;16.30;96.10;;;;;;4959310;28;20131;-75
2023/09/18 02:24:14;;;;;;;39.03;32.65;;;16.40;96.30;;;;;;4959428;28;20034;-80
2023/09/18 02:26:40;;;;;;;37.63;29.65;;;16.40;96.20;;;;;;4975316;28;20042;-75
2023/09/18 02:29:10;;;;;;;34.00;28.73;;;16.40;96.20;;;;;;4975252;28;20145;-79
2023/09/18 02:31:37;;;;;;;33.80;29.73;;;16.40;96.30;;;;;;4975157;28;20046;-78
2023/09/18 02:34:02;;;;;;;35.70;30.10;;;16.50;96.40;;;;;;4959111;28;20060;-77
2023/09/18 02:36:28;;;;;;;39.28;31.08;;;16.50;96.40;;;;;;4943006;28;20042;-77
2023/09/18 02:38:54;;;;;;;36.20;30.50;;;16.60;96.40;;;;;;4974843;28;20043;-75
2023/09/18 02:41:19;;;;;;;34.30;30.00;;;16.60;96.50;;;;;;4975236;28;20088;-80
2023/09/18 02:43:45;;;;;;;32.17;27.25;;;16.70;96.60;;;;;;4975168;28;20491;-75
2023/09/18 02:46:11;;;;;;;38.22;31.65;;;16.70;96.40;;;;;;4975328;28;20049;-82
2023/09/18 02:48:36;;;;;;;33.90;28.38;;;16.70;96.80;;;;;;4959103;28;20081;-78
2023/09/18 02:51:02;;;;;;;38.45;29.48;;;16.70;96.60;;;;;;4943058;28;20121;-76
2023/09/18 02:53:28;;;;;;;34.60;28.48;;;16.70;96.70;;;;;;4975389;28;20039;-77
2023/09/18 02:55:56;;;;;;;35.25;29.10;;;16.80;96.50;;;;;;4942855;28;20426;-78
2023/09/18 02:58:22;;;;;;;29.58;26.42;;;16.80;96.40;;;;;;4958799;28;20049;-78
2023/09/18 03:00:50;;;;;;;33.35;28.33;;;16.80;96.60;;;;;;4959117;28;20046;-76
2023/09/18 03:03:16;;;;;;;30.70;25.92;;;16.90;96.50;;;;;;4974835;28;20051;-74
2023/09/18 03:05:43;;;;;;;34.20;27.83;;;16.80;96.40;;;;;;4974467;28;20622;-78
2023/09/18 03:08:14;;;;;;;32.03;27.42;;;16.90;96.50;;;;;;4974681;28;20053;-75
2023/09/18 03:10:42;;;;;;;37.15;28.85;;;16.90;96.50;;;;;;4975123;28;20046;-76
2023/09/18 03:13:09;;;;;;;28.60;24.88;;;16.90;96.50;;;;;;4975367;28;20086;-78
2023/09/18 03:15:35;;;;;;;30.15;26.90;;;16.90;96.40;;;;;;4975545;28;20054;-77
2023/09/18 03:18:02;;;;;;;33.00;27.52;;;16.90;96.40;;;;;;4958635;28;20034;-79
2023/09/18 03:20:29;;;;;;;36.33;28.83;;;16.90;96.40;;;;;;4974664;28;20149;-76
2023/09/18 03:22:57;;;;;;;36.10;28.65;;;16.90;96.40;;;;;;4958673;28;20046;-77
2023/09/18 03:25:23;;;;;;;30.25;25.67;;;16.90;96.30;;;;;;4975028;28;20045;-75
2023/09/18 03:27:52;;;;;;;23.33;20.92;;;17.00;96.60;;;;;;4987408;28;20050;-75
2023/09/18 03:30:23;;;;;;;26.35;23.55;;;16.90;96.40;;;;;;4971063;28;20051;-74
2023/09/18 03:32:50;;;;;;;33.03;28.25;;;17.00;96.40;;;;;;4970677;28;20074;-74
2023/09/18 03:35:19;;;;;;;31.52;26.73;;;17.00;96.30;;;;;;4987095;28;20047;-74
2023/09/18 03:37:45;;;;;;;35.67;29.65;;;17.00;96.30;;;;;;4970242;28;20043;-74
2023/09/18 03:40:11;;;;;;;34.13;28.35;;;17.00;96.30;;;;;;4986861;28;20049;-75
2023/09/18 03:42:37;;;;;;;32.92;29.25;;;17.00;96.20;;;;;;4986806;28;20046;-74
2023/09/18 03:45:05;;;;;;;30.90;25.15;;;17.00;96.40;;;;;;4986438;28;20043;-75
2023/09/18 03:47:31;;;;;;;32.67;27.17;;;17.00;96.40;;;;;;4970921;28;20042;-74
2023/09/18 03:49:57;;;;;;;30.83;27.05;;;17.00;96.40;;;;;;4970022;28;20411;-75
2023/09/18 03:52:23;;;;;;;31.90;27.13;;;17.00;96.50;;;;;;4970224;28;20038;-77
2023/09/18 03:54:49;;;;;;;34.35;28.67;;;17.00;96.40;;;;;;4969739;28;20062;-76
2023/09/18 03:57:15;;;;;;;32.65;28.25;;;17.00;96.40;;;;;;4967868;28;20050;-76
2023/09/18 03:59:40;;;;;;;30.52;27.23;;;17.10;96.50;;;;;;4985551;28;20403;-75
2023/09/18 04:02:06;;;;;;;34.58;28.42;;;17.00;96.60;;;;;;4986235;28;20166;-75
2023/09/18 04:04:32;;;;;;;32.10;27.95;;;17.10;96.40;;;;;;4969300;28;20543;-74
2023/09/18 04:06:58;;;;;;;34.75;27.58;;;17.10;96.40;;;;;;4977771;28;20043;-75
2023/09/18 04:09:23;;;;;;;30.02;25.67;;;17.10;96.50;;;;;;4975491;28;20066;-79
2023/09/18 04:11:49;;;;;;;26.88;24.17;;;17.10;96.50;;;;;;4974986;28;20097;-78
2023/09/18 04:14:15;;;;;;;32.80;28.25;;;17.20;96.60;;;;;;4973959;28;20481;-76
2023/09/18 04:16:42;;;;;;;31.45;27.50;;;17.30;96.50;;;;;;4974018;28;20055;-77
2023/09/18 04:19:09;;;;;;;31.45;27.33;;;17.40;96.60;;;;;;4958076;28;20471;-76
2023/09/18 04:21:35;;;;;;;32.03;27.48;;;17.40;96.80;;;;;;4957516;28;20089;-76
2023/09/18 04:24:01;;;;;;;30.92;26.83;;;17.40;96.70;;;;;;4957658;28;20043;-77
2023/09/18 04:26:31;;;;;;;30.50;27.25;;;17.50;96.70;;;;;;4973544;28;20089;-77
2023/09/18 04:28:57;;;;;;;30.67;26.45;;;17.50;96.50;;;;;;4973256;28;20564;-80
2023/09/18 04:31:23;;;;;;;30.05;26.02;;;17.50;96.50;;;;;;4973201;28;20062;-77
2023/09/18 04:33:49;;;;;;;28.27;23.83;;;17.50;96.40;;;;;;4973702;28;20043;-78
2023/09/18 04:36:15;;;;;;;33.88;28.95;;;17.50;96.50;;;;;;4973222;28;20047;-75
2023/09/18 04:38:41;;;;;;;32.40;28.15;;;17.50;96.40;;;;;;4977345;28;20072;-77
2023/09/18 04:41:07;;;;;;;31.77;27.48;;;17.60;96.40;;;;;;4977626;28;20158;-75
2023/09/18 04:43:36;;;;;;;33.58;28.83;;;17.60;96.50;;;;;;4977136;28;20039;-77
2023/09/18 04:46:04;;;;;;;39.70;31.60;;;17.60;96.50;;;;;;4977309;28;20109;-79
2023/09/18 04:48:30;;;;;;;39.75;27.95;;;17.60;96.40;;;;;;4977081;28;20043;-80
2023/09/18 04:50:57;;;;;;;31.00;26.23;;;17.50;96.50;;;;;;4977402;28;20121;-77
2023/09/18 04:53:22;;;;;;;30.40;26.90;;;17.60;96.50;;;;;;4977110;28;20043;-74
2023/09/18 04:55:49;;;;;;;33.42;27.27;;;17.60;96.50;;;;;;4976996;28;20050;-78
2023/09/18 04:58:15;;;;;;;33.22;25.60;;;17.70;97.00;;;;;;4960876;28;20078;-77
2023/09/18 05:00:41;;;;;;;30.38;27.13;;;17.70;96.60;;;;;;4976989;28;20047;-79
2023/09/18 05:03:08;;;;;;;35.97;26.95;;;17.70;96.60;;;;;;4976854;28;20047;-78
2023/09/18 05:05:37;;;;;;;34.55;28.02;;;17.70;96.60;;;;;;4960983;28;20105;-77
2023/09/18 05:08:07;;;;;;;29.27;25.77;;;17.70;96.70;;;;;;4976713;28;20045;-79
2023/09/18 05:10:34;;;;;;;33.40;27.85;;;17.70;96.70;;;;;;4960593;28;20514;-77
2023/09/18 05:13:00;;;;;;;33.58;28.85;;;17.60;96.60;;;;;;4976669;28;20054;-80
2023/09/18 05:15:26;;;;;;;31.95;28.13;;;17.60;96.60;;;;;;4960530;28;20080;-74
2023/09/18 05:17:56;;;;;;;35.58;29.35;;;17.60;96.70;;;;;;4976724;28;20046;-80
2023/09/18 05:20:24;;;;;;;32.05;28.08;;;17.60;96.80;;;;;;4960337;28;20479;-79
2023/09/18 05:22:53;;;;;;;34.13;28.35;;;17.50;96.80;;;;;;4976268;28;20050;-78
2023/09/18 05:25:21;;;;;;;34.17;28.25;;;17.50;96.80;;;;;;4960188;28;20045;-77
2023/09/18 05:27:48;;;;;;;30.30;26.42;;;17.50;96.70;;;;;;4960348;28;20039;-76
2023/09/18 05:30:15;;;;;;;30.45;27.27;;;17.50;97.00;;;;;;4976123;28;20050;-77
2023/09/18 05:32:42;;;;;;;31.60;27.58;;;17.60;97.00;;;;;;4975992;28;20134;-76
2023/09/18 05:35:10;;;;;;;30.42;25.40;;;17.60;97.00;;;;;;4960438;28;20049;-78
2023/09/18 05:37:40;;;;;;;26.05;23.27;;;17.60;96.80;;;;;;4948844;29;20078;-79
2023/09/18 05:40:10;;;;;;;32.55;26.00;;;17.60;96.80;;;;;;4956831;29;20592;-79
2023/09/18 05:42:45;;;;;;;27.58;23.35;;;17.70;97.10;;;;;;4956689;29;20047;-79
2023/09/18 05:45:12;;;;;;;33.30;25.65;;;17.70;96.90;;;;;;4940669;29;20074;-79
2023/09/18 05:47:38;;;;;;;29.92;24.67;;;17.80;96.80;;;;;;4956857;29;20047;-80
2023/09/18 05:50:09;;;;;;;29.23;22.30;;;17.80;96.80;;;;;;4940302;29;20427;-80
2023/09/18 05:52:35;;;;;;;26.52;23.73;;;17.90;97.00;;;;;;4924078;29;20365;-81
2023/09/18 05:55:02;;;;;;;28.83;21.48;;;18.00;96.80;;;;;;4939651;29;20484;-79
2023/09/18 05:57:28;;;;;;;22.88;20.45;;;18.00;96.90;;;;;;4939742;29;20089;-82
2023/09/18 05:59:57;;;;;;;24.38;21.60;;;18.20;96.70;;;;;;4956024;29;20074;-78
2023/09/18 06:02:24;;;;;;;27.23;22.17;;;18.20;96.60;;;;;;4939945;29;20035;-76
2023/09/18 06:04:59;;;;;;;24.02;21.38;;;18.40;96.90;;;;;;4955866;29;20047;-79
2023/09/18 06:07:26;;;;;;;25.48;21.17;;;18.50;96.80;;;;;;4956214;29;20043;-78
2023/09/18 06:09:52;;;;;;;36.70;23.13;;;18.50;96.60;;;;;;4955701;29;20559;-82
2023/09/18 06:12:17;;;;;;;27.20;22.50;;;18.60;96.30;;;;;;4955322;28;20131;-80
2023/09/18 06:14:44;;;;;;;30.02;24.23;;;18.60;96.30;;;;;;4954377;29;20047;-79
2023/09/18 06:17:10;;;;;;;29.25;24.65;;;18.60;96.40;;;;;;4938746;29;20500;-80
2023/09/18 06:19:36;;;;;;;36.55;23.77;;;18.60;96.40;;;;;;4963093;28;20122;-77
2023/09/18 06:22:02;;;;;;;33.95;25.80;;;18.60;96.50;;;;;;4955124;28;20132;-78
2023/09/18 06:24:28;;;;;;;34.05;25.55;;;18.50;96.60;;;;;;4939786;29;20043;-76
2023/09/18 06:26:54;;;;;;;33.83;26.10;;;18.50;96.70;;;;;;4955351;28;20039;-80
2023/09/18 06:29:19;;;;;;;31.27;26.88;;;18.50;96.80;;;;;;4954978;28;20047;-81
2023/09/18 06:31:46;;;;;;;31.75;26.60;;;18.50;96.70;;;;;;4955395;28;20221;-76
2023/09/18 06:34:12;;;;;;;33.22;25.08;;;18.50;97.00;;;;;;4938816;29;20055;-81
2023/09/18 06:36:37;;;;;;;33.40;26.13;;;18.50;96.50;;;;;;4955132;29;20051;-79
2023/09/18 06:39:03;;;;;;;29.13;23.05;;;18.50;96.50;;;;;;4938909;29;20039;-77
2023/09/18 06:41:29;;;;;;;23.30;18.55;;;18.50;96.70;;;;;;4938858;29;20070;-77
2023/09/18 06:43:55;;;;;;;24.55;18.40;;;18.50;96.50;;;;;;4938696;29;20043;-80
2023/09/18 06:46:20;;;;;;;23.15;17.45;;;18.50;96.70;;;;;;4955117;29;20106;-76
2023/09/18 06:48:49;;;;;;;26.80;17.42;;;18.50;96.60;;;;;;4939261;29;20043;-83
2023/09/18 06:51:15;;;;;;;18.45;12.75;;;18.50;96.60;;;;;;4955458;28;20137;-82
2023/09/18 06:53:44;;;;;;;17.10;12.95;;;18.60;96.50;;;;;;4955019;28;20130;-82
2023/09/18 06:56:09;;;;;;;13.38;10.77;;;18.50;96.50;;;;;;4957118;28;20102;-78
2023/09/18 06:58:35;;;;;;;14.05;8.68;;;18.50;96.60;;;;;;4974268;28;20447;-81
2023/09/18 07:01:01;;;;;;;11.48;7.82;;;18.40;96.60;;;;;;4958232;28;20097;-76
2023/09/18 07:03:27;;;;;;;10.82;7.45;;;18.40;96.60;;;;;;4943469;28;20098;-79
2023/09/18 07:05:53;;;;;;;9.88;6.65;;;18.40;96.70;;;;;;4945630;29;20122;-77
2023/09/18 07:08:22;;;;;;;10.55;7.28;;;18.30;96.60;;;;;;4961550;28;20035;-78
2023/09/18 07:10:50;;;;;;;10.23;6.90;;;18.40;96.70;;;;;;4978505;28;20082;-75
2023/09/18 07:13:16;;;;;;;12.60;6.78;;;18.30;96.60;;;;;;4954326;28;20054;-82
2023/09/18 07:15:41;;;;;;;9.00;6.95;;;18.30;96.70;;;;;;4954436;29;20138;-75
2023/09/18 07:18:07;;;;;;;11.85;8.10;;;18.30;96.70;;;;;;4963419;28;20074;-79
2023/09/18 07:20:33;;;;;;;10.50;8.18;;;18.30;96.80;;;;;;4940567;28;20490;-81
2023/09/18 07:22:59;;;;;;;8.07;6.80;;;18.30;96.90;;;;;;4957303;28;20039;-77
2023/09/18 07:25:24;;;;;;;11.65;6.47;;;18.30;97.00;;;;;;4973814;28;20038;-81
2023/09/18 07:27:50;;;;;;;10.00;7.70;;;18.20;97.10;;;;;;4973751;28;20096;-81
2023/09/18 07:30:16;;;;;;;12.40;7.03;;;18.20;97.00;;;;;;4957449;28;20051;-80
2023/09/18 07:32:43;;;;;;;12.80;7.28;;;18.20;97.10;;;;;;4973576;28;20054;-81
2023/09/18 07:35:09;;;;;;;8.60;6.47;;;18.20;97.10;;;;;;4973371;28;20042;-81
2023/09/18 07:37:36;;;;;;;7.28;5.70;;;18.20;97.10;;;;;;4973609;28;20038;-82
2023/09/18 07:40:04;;;;;;;9.63;6.15;;;18.20;97.20;;;;;;4957495;28;20121;-80
2023/09/18 07:42:29;;;;;;;9.10;6.05;;;18.20;97.20;;;;;;4957326;28;20053;-78
2023/09/18 07:44:55;;;;;;;12.07;5.90;;;18.20;97.20;;;;;;4973498;28;20038;-82
2023/09/18 07:47:22;;;;;;;8.95;6.00;;;18.20;97.10;;;;;;4973684;28;20038;-80
2023/09/18 07:49:47;;;;;;;11.60;6.75;;;18.20;97.00;;;;;;4973446;28;20070;-80
2023/09/18 07:52:13;;;;;;;11.32;6.78;;;18.20;97.30;;;;;;4957466;28;20070;-80
2023/09/18 07:54:39;;;;;;;8.90;6.22;;;18.20;97.40;;;;;;4957376;28;20051;-77
2023/09/18 07:57:09;;;;;;;10.25;6.20;;;18.20;97.50;;;;;;4973310;28;20050;-79
2023/09/18 07:59:38;;;;;;;12.13;6.55;;;18.20;97.60;;;;;;4957829;28;20046;-77
2023/09/18 08:02:05;;;;;;;11.38;7.32;;;18.20;97.50;;;;;;4973528;28;20038;-81
2023/09/18 08:04:34;;;;;;;11.65;7.32;;;18.20;97.60;;;;;;4973390;28;20498;-78
2023/09/18 08:07:00;;;;;;;10.88;6.95;;;18.30;97.80;;;;;;4973453;28;20074;-79
2023/09/18 08:09:29;;;;;;;10.30;6.82;;;18.20;97.80;;;;;;4974172;28;20039;-78
2023/09/18 08:11:55;;;;;;;12.52;7.18;;;18.30;97.60;;;;;;4973290;28;20043;-77
2023/09/18 08:14:22;;;;;;;10.77;6.95;;;18.30;97.70;;;;;;4957012;28;20046;-79
2023/09/18 08:16:47;;;;;;;11.95;6.93;;;18.40;97.90;;;;;;4957043;28;20047;-79
2023/09/18 08:19:19;;;;;;;9.88;6.63;;;18.40;97.80;;;;;;4957141;28;20043;-80
2023/09/18 08:21:46;;;;;;;8.73;6.22;;;18.40;97.60;;;;;;4957256;28;20078;-76
2023/09/18 08:27:08;;;;;;;7.70;5.80;;;18.40;97.80;;;;;;5931368;23;20046;-81
2023/09/18 08:29:34;;;;;;;9.07;5.53;;;18.50;97.90;;;;;;4955607;28;20077;-80
2023/09/18 08:31:59;;;;;;;11.60;5.55;;;18.50;97.80;;;;;;4928298;28;20078;-80
2023/09/18 08:34:25;;;;;;;7.80;4.47;;;18.50;97.90;;;;;;4944505;28;20042;-82
2023/09/18 08:36:51;;;;;;;9.98;6.15;;;18.50;97.80;;;;;;4957058;28;20073;-82
2023/09/18 08:39:17;;;;;;;8.25;5.78;;;18.60;98.00;;;;;;4940875;28;20042;-81
2023/09/18 08:41:44;;;;;;;11.65;6.13;;;18.70;97.80;;;;;;4909401;28;20066;-81
2023/09/18 08:44:10;;;;;;;9.70;5.80;;;18.70;97.80;;;;;;4957025;28;20038;-80
2023/09/18 08:46:37;;;;;;;11.45;7.05;;;18.70;97.80;;;;;;4941055;28;20556;-78
2023/09/18 08:49:04;;;;;;;11.15;6.72;;;18.80;97.80;;;;;;4941201;28;20061;-80
2023/09/18 08:51:30;;;;;;;11.73;7.95;;;18.90;97.80;;;;;;4941121;28;20035;-81
2023/09/18 08:53:56;;;;;;;11.30;8.90;;;18.90;98.00;;;;;;4925284;28;20042;-79
2023/09/18 08:56:23;;;;;;;13.20;9.00;;;18.90;98.20;;;;;;4940632;28;20078;-79
2023/09/18 08:58:49;;;;;;;11.35;7.85;;;19.00;98.00;;;;;;4956689;28;20057;-79
2023/09/18 09:01:15;;;;;;;12.95;10.18;;;19.00;97.90;;;;;;4940645;28;20046;-78
2023/09/18 09:03:42;;;;;;;13.13;9.68;;;19.10;98.10;;;;;;4956324;28;20478;-79
2023/09/18 09:06:09;;;;;;;14.13;10.82;;;19.10;98.00;;;;;;4956692;28;20039;-78
2023/09/18 09:08:36;;;;;;;17.75;12.70;;;19.10;98.00;;;;;;4940701;28;20173;-79
2023/09/18 09:11:02;;;;;;;15.45;12.00;;;19.20;98.10;;;;;;4940659;28;20058;-78
2023/09/18 09:13:28;;;;;;;19.10;13.35;;;19.20;98.00;;;;;;4941097;28;20398;-79
2023/09/18 09:15:56;;;;;;;16.80;13.57;;;19.20;97.90;;;;;;4940369;28;20035;-79
2023/09/18 09:18:26;;;;;;;16.60;13.25;;;19.30;97.90;;;;;;4924943;28;20046;-79
2023/09/18 09:21:04;;;;;;;19.40;14.10;;;19.30;97.70;;;;;;4940960;28;20043;-79
2023/09/18 09:23:50;;;;;;;15.05;12.63;;;19.30;97.80;;;;;;4956944;28;20042;-80
2023/09/18 09:26:17;;;;;;;15.98;11.93;;;19.40;97.70;;;;;;4944171;28;20047;-79
2023/09/18 09:28:43;;;;;;;13.73;12.25;;;19.40;97.60;;;;;;4928503;28;20063;-79
2023/09/18 09:31:10;;;;;;;17.35;14.85;;;19.50;97.60;;;;;;4960493;28;20054;-79
2023/09/18 09:33:38;;;;;;;16.05;14.20;;;19.50;97.50;;;;;;4943932;28;20491;-79
2023/09/18 09:36:07;;;;;;;12.88;11.55;;;19.60;97.60;;;;;;4928215;28;20135;-80
2023/09/18 09:38:34;;;;;;;15.48;13.05;;;19.70;97.40;;;;;;4943712;28;20053;-79
2023/09/18 09:41:06;;;;;;;14.95;13.15;;;19.80;97.30;;;;;;4959760;28;20483;-78
2023/09/18 09:43:33;;;;;;;18.15;15.55;;;19.90;97.00;;;;;;4959655;28;20054;-77
2023/09/18 09:46:02;;;;;;;18.95;14.90;;;19.90;96.80;;;;;;4959891;28;20047;-78
2023/09/18 09:48:31;;;;;;;15.82;13.85;;;20.00;96.50;;;;;;4960410;28;20427;-78
2023/09/18 09:51:01;;;;;;;17.80;14.82;;;20.00;96.40;;;;;;4960011;28;20043;-78
2023/09/18 09:53:47;;;;;;;17.08;15.18;;;20.00;96.10;;;;;;4943755;28;20046;-78
2023/09/18 09:56:14;;;;;;;16.33;14.63;;;20.00;96.00;;;;;;4959303;28;20388;-78
2023/09/18 09:58:43;;;;;;;20.17;14.90;;;20.00;96.00;;;;;;4959541;28;20142;-80
2023/09/18 10:01:17;;;;;;;20.15;16.00;;;20.00;96.10;;;;;;4959314;28;20039;-80
2023/09/18 10:03:44;;;;;;;20.58;18.38;;;20.00;95.70;;;;;;4943498;28;20074;-80
2023/09/18 10:06:13;;;;;;;20.02;17.90;;;20.00;95.00;;;;;;4943345;28;20081;-81
2023/09/18 10:08:40;;;;;;;21.17;18.92;;;20.10;95.40;;;;;;4927815;28;20042;-79
2023/09/18 10:11:11;;;;;;;22.25;19.33;;;20.20;95.40;;;;;;4927569;28;20078;-79
2023/09/18 10:13:53;;;;;;;21.63;19.10;;;20.20;95.00;;;;;;4960628;28;20043;-82
2023/09/18 10:16:21;;;;;;;21.25;18.88;;;20.20;94.90;;;;;;4946700;28;20043;-78
2023/09/18 10:19:09;;;;;;;21.60;19.35;;;20.30;94.60;;;;;;4943052;28;20139;-82
2023/09/18 10:22:03;;;;;;;17.58;15.68;;;20.40;94.40;;;;;;4945643;28;20030;-81
2023/09/18 10:24:36;;;;;;;18.65;16.67;;;20.30;93.90;;;;;;4944656;28;20482;-81
2023/09/18 10:27:03;;;;;;;18.55;16.70;;;20.30;93.80;;;;;;4943168;28;20047;-81
2023/09/18 10:29:34;;;;;;;18.27;16.00;;;20.30;93.70;;;;;;4942862;28;20059;-81
2023/09/18 10:32:03;;;;;;;16.85;15.18;;;20.30;93.20;;;;;;4943114;28;20054;-82
2023/09/18 10:34:30;;;;;;;14.82;13.32;;;20.50;92.60;;;;;;4942436;28;20047;-81
2023/09/18 10:36:57;;;;;;;18.85;12.88;;;20.80;93.00;;;;;;4931634;28;20376;-79
2023/09/18 10:39:28;;;;;;;15.45;13.30;;;20.80;92.50;;;;;;4915012;28;20066;-80
2023/09/18 10:41:56;;;;;;;14.65;11.98;;;20.70;92.00;;;;;;4942588;28;20125;-80
2023/09/18 10:44:23;;;;;;;14.40;12.90;;;20.70;92.10;;;;;;4942951;28;20126;-81
2023/09/18 10:46:55;;;;;;;14.77;12.20;;;20.70;91.90;;;;;;4926446;28;20050;-81
2023/09/18 10:49:22;;;;;;;13.88;12.30;;;20.80;91.70;;;;;;4926574;28;20048;-82
2023/09/18 10:51:48;;;;;;;16.27;11.45;;;20.80;91.50;;;;;;4926749;28;20109;-81
2023/09/18 10:54:21;;;;;;;12.77;9.68;;;20.80;91.40;;;;;;4958655;28;20394;-81
2023/09/18 10:57:16;;;;;;;12.18;10.95;;;20.70;90.90;;;;;;4931953;28;20407;-80
2023/09/18 10:59:48;;;;;;;11.98;10.77;;;20.70;91.20;;;;;;4945415;28;21081;-80
2023/09/18 11:02:29;;;;;;;12.45;9.35;;;20.80;91.10;;;;;;4962758;28;20049;-79
2023/09/18 11:08:49;;;;;;;10.48;8.10;;;21.40;88.20;;;;;;4872769;28;20101;-81
2023/09/18 11:12:27;;;;;;;;;;;;;;;;;;;;;
2023/09/18 11:18:59;;;;;;;9.82;6.70;;;22.00;86.10;;;;;;4896041;29;20063;-80
2023/09/18 11:21:30;;;;;;;8.40;6.53;;;22.10;85.10;;;;;;4935185;28;21010;-80
2023/09/18 11:24:19;;;;;;;8.88;6.75;;;21.90;83.90;;;;;;4961080;28;20042;-80
2023/09/18 11:26:47;;;;;;;8.57;5.78;;;21.80;84.40;;;;;;4942516;28;20111;-79
2023/09/18 11:29:23;;;;;;;6.57;4.45;;;22.00;84.00;;;;;;4940123;28;20498;-79
2023/09/18 11:31:54;;;;;;;7.00;3.20;;;22.40;82.70;;;;;;4927410;28;20105;-80
2023/09/18 11:34:22;;;;;;;6.05;4.00;;;22.50;80.80;;;;;;4942711;28;20368;-80
2023/09/18 11:36:49;;;;;;;6.05;4.10;;;22.80;79.90;;;;;;4957347;28;20054;-80
2023/09/18 11:39:37;;;;;;;8.55;4.22;;;22.80;79.30;;;;;;4941461;28;20050;-81
2023/09/18 11:42:22;;;;;;;8.05;4.45;;;22.70;78.70;;;;;;4957534;28;20039;-79
2023/09/18 11:44:51;;;;;;;7.97;4.07;;;22.60;78.80;;;;;;4941513;28;20061;-79
2023/09/18 11:47:19;;;;;;;5.13;4.40;;;22.40;79.00;;;;;;4940736;28;20101;-79
2023/09/18 11:49:54;;;;;;;6.18;5.32;;;22.00;79.80;;;;;;4926130;28;20053;-79
2023/09/18 11:52:28;;;;;;;9.30;5.45;;;21.90;81.10;;;;;;4941803;28;20089;-79
2023/09/18 11:54:59;;;;;;;7.28;6.57;;;21.80;82.10;;;;;;4957643;28;20129;-80
2023/09/18 11:57:26;;;;;;;7.07;6.13;;;21.70;82.60;;;;;;4941086;28;20049;-80
2023/09/18 12:00:07;;;;;;;8.93;7.00;;;22.00;81.90;;;;;;4925578;28;20047;-81
2023/09/18 12:02:46;;;;;;;7.68;6.47;;;22.40;81.40;;;;;;4928022;28;20053;-80
2023/09/18 12:05:25;;;;;;;10.10;7.53;;;22.40;81.00;;;;;;4941876;28;20085;-80
2023/09/18 12:07:55;;;;;;;9.25;7.15;;;22.00;81.50;;;;;;4941335;28;20035;-79
2023/09/18 12:10:26;;;;;;;7.55;5.78;;;22.20;81.50;;;;;;4941716;28;20038;-79
2023/09/18 12:12:52;;;;;;;9.25;6.53;;;22.40;80.10;;;;;;4957344;28;20197;-81
2023/09/18 12:15:19;;;;;;;10.15;6.35;;;22.40;79.40;;;;;;4925593;28;20526;-80
2023/09/18 12:17:45;;;;;;;9.00;5.80;;;22.20;80.00;;;;;;4956894;28;20126;-81
2023/09/18 12:20:18;;;;;;;8.60;6.22;;;22.30;79.50;;;;;;4925561;28;20466;-81
2023/09/18 12:22:50;;;;;;;8.40;6.10;;;22.40;79.50;;;;;;4925608;28;20039;-80
2023/09/18 12:25:19;;;;;;;8.55;6.15;;;22.40;78.60;;;;;;4956934;28;20129;-79
2023/09/18 12:27:45;;;;;;;7.95;6.32;;;22.60;76.90;;;;;;4941070;28;20046;-79
2023/09/18 12:30:23;;;;;;;9.45;5.72;;;22.80;77.10;;;;;;4925505;28;20053;-81
2023/09/18 12:32:52;;;;;;;6.20;5.47;;;23.30;77.50;;;;;;4940894;28;20068;-81
2023/09/18 12:35:18;;;;;;;6.78;6.15;;;23.20;74.70;;;;;;4941081;28;20053;-82
2023/09/18 12:37:44;;;;;;;7.13;6.25;;;23.20;75.20;;;;;;4924945;28;20091;-80
2023/09/18 12:40:22;;;;;;;9.18;6.28;;;23.00;75.60;;;;;;4941038;28;20549;-80
2023/09/18 12:42:49;;;;;;;7.35;6.57;;;22.90;75.80;;;;;;4946953;28;20042;-80
2023/09/18 12:45:16;;;;;;;10.23;7.35;;;22.50;75.80;;;;;;4961069;28;20110;-80
2023/09/18 12:47:43;;;;;;;7.60;6.82;;;22.30;76.70;;;;;;4944008;28;20055;-79
2023/09/18 12:50:13;;;;;;;7.00;5.97;;;22.40;76.40;;;;;;4931322;28;20053;-82